Hanjin Philadelphia — A8CN8 — position and weather

sailwx.info

Track history (hours):
 
Tides and Currents Weather Stations Pressure Air Temp Water Temp Dewpoint Dewpoint Depression Visibility Wind Speed Wind Dir Waves Ship Positions

Hanjin Philadelphia

Last reported at 2014-Dec-20 05:33 UTC. Time now 2014-Dec-20 05:52 UTC.
Position N 31°20' E 121°39'.

Length 282.1 m; beam 32.2 m; draft 13 m.

Type: Ship. MMSI: 636026894.

Date/timePositionNaut miles runAvg speedWind from/ knotsBaromVisibWave heightAir tempDewpointWater temp
2014-Dec-20 05:33N 31°20' E 121°39'0 0.0
2014-Dec-20 04:33N 31°20' E 121°39'0 0.0
2014-Dec-20 03:33N 31°20' E 121°39'0 0.0
2014-Dec-20 02:33N 31°20' E 121°39'0 0.0
2014-Dec-20 01:30N 31°20' E 121°39'0 0.0
2014-Dec-20 00:33N 31°20' E 121°39'0 0.0
2014-Dec-19 23:33N 31°20' E 121°39'0 0.0
2014-Dec-19 22:33N 31°20' E 121°39'0 0.0
2014-Dec-19 21:33N 31°20' E 121°39'0 0.0
2014-Dec-19 20:33N 31°20' E 121°39'0 0.0
2014-Dec-19 19:33N 31°20' E 121°39'0 0.0
2014-Dec-19 18:33N 31°20' E 121°39'0 0.0
2014-Dec-19 17:33N 31°20' E 121°39'0 0.0
2014-Dec-19 16:33N 31°20' E 121°39'4 3.6
2014-Dec-19 15:33N 31°19' E 121°43'1111.0
2014-Dec-19 14:33N 31°16' E 121°55'1111.0
2014-Dec-19 13:33N 31°13' E 122°08'1111.1
2014-Dec-19 12:33N 31°06' E 122°18'8 7.9
2014-Dec-19 11:33N 31°07' E 122°28'10 9.2
2014-Dec-19 10:30N 31°07' E 122°39'104 3.0
2014-Dec-18 00:22N 29°25' E 123°01'35310.6
2014-Dec-16 15:05N 24°33' E 119°19'611.4
2014-Dec-16 14:33N 24°29' E 119°14'5110.1
2014-Dec-16 09:26N 23°57' E 118°31'1010.3
2014-Dec-16 08:31N 23°51' E 118°22'1111.1
2014-Dec-16 07:33N 23°44' E 118°13'8810.7
2014-Dec-15 23:19N 22°50' E 116°58'810.9
2014-Dec-15 22:33N 22°46' E 116°50'15110.5
2014-Dec-15 08:10N 22°08' E 114°12'6 9.7
2014-Dec-15 07:33N 22°13' E 114°09'7 7.1
2014-Dec-15 06:33N 22°20' E 114°07'0 0.1
2014-Dec-15 05:32N 22°20' E 114°07'0 0.0
2014-Dec-14 21:17N 22°20' E 114°07'0 0.1
2014-Dec-14 18:17N 22°20' E 114°07'7 9.6
2014-Dec-14 17:33N 22°13' E 114°09'  
Track history (hours):
 
Tides and Currents Weather Stations Pressure Air Temp Water Temp Dewpoint Dewpoint Depression Visibility Wind Speed Wind Dir Waves Ship Positions

Hanjin Philadelphia

Last reported at 2014-Dec-20 05:33 UTC. Time now 2014-Dec-20 05:52 UTC.
Position N 31°20' E 121°39'.

Length 282.1 m; beam 32.2 m; draft 13 m.

Type: Ship. MMSI: 636026894.

Date/timePositionNaut miles runAvg speedWind from/ knotsBaromVisibWave heightAir tempDewpointWater temp
2014-Dec-20 05:33N 31°20' E 121°39'0 0.0
2014-Dec-20 04:33N 31°20' E 121°39'0 0.0
2014-Dec-20 03:33N 31°20' E 121°39'0 0.0
2014-Dec-20 02:33N 31°20' E 121°39'0 0.0
2014-Dec-20 01:30N 31°20' E 121°39'0 0.0
2014-Dec-20 00:33N 31°20' E 121°39'0 0.0
2014-Dec-19 23:33N 31°20' E 121°39'0 0.0
2014-Dec-19 22:33N 31°20' E 121°39'0 0.0
2014-Dec-19 21:33N 31°20' E 121°39'0 0.0
2014-Dec-19 20:33N 31°20' E 121°39'0 0.0
2014-Dec-19 19:33N 31°20' E 121°39'0 0.0
2014-Dec-19 18:33N 31°20' E 121°39'0 0.0
2014-Dec-19 17:33N 31°20' E 121°39'0 0.0
2014-Dec-19 16:33N 31°20' E 121°39'4 3.6
2014-Dec-19 15:33N 31°19' E 121°43'1111.0
2014-Dec-19 14:33N 31°16' E 121°55'1111.0
2014-Dec-19 13:33N 31°13' E 122°08'1111.1
2014-Dec-19 12:33N 31°06' E 122°18'8 7.9
2014-Dec-19 11:33N 31°07' E 122°28'10 9.2
2014-Dec-19 10:30N 31°07' E 122°39'104 3.0
2014-Dec-18 00:22N 29°25' E 123°01'35310.6
2014-Dec-16 15:05N 24°33' E 119°19'611.4
2014-Dec-16 14:33N 24°29' E 119°14'5110.1
2014-Dec-16 09:26N 23°57' E 118°31'1010.3
2014-Dec-16 08:31N 23°51' E 118°22'1111.1
2014-Dec-16 07:33N 23°44' E 118°13'8810.7
2014-Dec-15 23:19N 22°50' E 116°58'810.9
2014-Dec-15 22:33N 22°46' E 116°50'15110.5
2014-Dec-15 08:10N 22°08' E 114°12'6 9.7
2014-Dec-15 07:33N 22°13' E 114°09'7 7.1
2014-Dec-15 06:33N 22°20' E 114°07'0 0.1
2014-Dec-15 05:32N 22°20' E 114°07'0 0.0
2014-Dec-14 21:17N 22°20' E 114°07'0 0.1
2014-Dec-14 18:17N 22°20' E 114°07'7 9.6
2014-Dec-14 17:33N 22°13' E 114°09'  

Dump ship's entire track history